sensor_id;sensor_type;location;lat;lon;timestamp;P1;durP1;ratioP1;P2;durP2;ratioP2
19867;SDS011;10096;51.112;6.776;2023-03-01T00:02:02;10.13;;;7.70;;
19867;SDS011;10096;51.112;6.776;2023-03-01T00:04:29;8.40;;;7.43;;
19867;SDS011;10096;51.112;6.776;2023-03-01T00:07:01;9.27;;;7.93;;
19867;SDS011;10096;51.112;6.776;2023-03-01T00:09:28;9.27;;;7.73;;
19867;SDS011;10096;51.112;6.776;2023-03-01T00:12:04;12.27;;;8.60;;
19867;SDS011;10096;51.112;6.776;2023-03-01T00:14:32;9.83;;;8.37;;
19867;SDS011;10096;51.112;6.776;2023-03-01T00:16:59;9.93;;;8.50;;
19867;SDS011;10096;51.112;6.776;2023-03-01T00:19:26;8.37;;;7.47;;
19867;SDS011;10096;51.112;6.776;2023-03-01T00:21:53;11.57;;;8.13;;
19867;SDS011;10096;51.112;6.776;2023-03-01T00:24:20;10.70;;;7.43;;
19867;SDS011;10096;51.112;6.776;2023-03-01T00:26:48;10.07;;;8.10;;
19867;SDS011;10096;51.112;6.776;2023-03-01T00:29:16;10.83;;;7.93;;
19867;SDS011;10096;51.112;6.776;2023-03-01T00:31:43;10.50;;;8.20;;
19867;SDS011;10096;51.112;6.776;2023-03-01T00:34:10;8.57;;;7.67;;
19867;SDS011;10096;51.112;6.776;2023-03-01T00:36:37;10.47;;;8.23;;
19867;SDS011;10096;51.112;6.776;2023-03-01T00:39:05;9.80;;;7.90;;
19867;SDS011;10096;51.112;6.776;2023-03-01T00:41:35;9.17;;;7.93;;
19867;SDS011;10096;51.112;6.776;2023-03-01T00:44:02;10.50;;;8.13;;
19867;SDS011;10096;51.112;6.776;2023-03-01T00:46:31;10.17;;;8.03;;
19867;SDS011;10096;51.112;6.776;2023-03-01T00:48:58;9.07;;;7.87;;
19867;SDS011;10096;51.112;6.776;2023-03-01T00:51:28;11.00;;;8.67;;
19867;SDS011;10096;51.112;6.776;2023-03-01T00:53:55;11.73;;;8.73;;
19867;SDS011;10096;51.112;6.776;2023-03-01T00:56:23;10.60;;;8.53;;
19867;SDS011;10096;51.112;6.776;2023-03-01T00:58:50;9.83;;;7.93;;
19867;SDS011;10096;51.112;6.776;2023-03-01T01:01:22;9.63;;;7.70;;
19867;SDS011;10096;51.112;6.776;2023-03-01T01:03:54;12.23;;;8.20;;
19867;SDS011;10096;51.112;6.776;2023-03-01T01:06:24;10.63;;;8.13;;
19867;SDS011;10096;51.112;6.776;2023-03-01T01:08:53;10.43;;;8.40;;
19867;SDS011;10096;51.112;6.776;2023-03-01T01:11:21;9.80;;;8.07;;
19867;SDS011;10096;51.112;6.776;2023-03-01T01:13:49;10.67;;;7.77;;
19867;SDS011;10096;51.112;6.776;2023-03-01T01:16:17;11.23;;;8.53;;
19867;SDS011;10096;51.112;6.776;2023-03-01T01:18:52;11.53;;;8.27;;
19867;SDS011;10096;51.112;6.776;2023-03-01T01:21:30;9.97;;;8.33;;
19867;SDS011;10096;51.112;6.776;2023-03-01T01:23:57;10.30;;;8.43;;
19867;SDS011;10096;51.112;6.776;2023-03-01T01:26:25;10.40;;;8.57;;
19867;SDS011;10096;51.112;6.776;2023-03-01T01:28:53;11.63;;;8.37;;
19867;SDS011;10096;51.112;6.776;2023-03-01T01:31:23;10.43;;;8.10;;
19867;SDS011;10096;51.112;6.776;2023-03-01T01:33:50;11.27;;;7.97;;
19867;SDS011;10096;51.112;6.776;2023-03-01T01:36:19;10.50;;;8.50;;
19867;SDS011;10096;51.112;6.776;2023-03-01T01:38:47;12.27;;;8.93;;
19867;SDS011;10096;51.112;6.776;2023-03-01T01:44:09;10.20;;;8.67;;
19867;SDS011;10096;51.112;6.776;2023-03-01T01:46:41;11.63;;;8.80;;
19867;SDS011;10096;51.112;6.776;2023-03-01T01:49:12;12.63;;;8.40;;
19867;SDS011;10096;51.112;6.776;2023-03-01T01:52:02;10.87;;;7.87;;
19867;SDS011;10096;51.112;6.776;2023-03-01T01:54:36;11.47;;;9.23;;
19867;SDS011;10096;51.112;6.776;2023-03-01T01:57:09;11.97;;;8.63;;
19867;SDS011;10096;51.112;6.776;2023-03-01T01:59:41;11.67;;;8.70;;
19867;SDS011;10096;51.112;6.776;2023-03-01T02:02:13;11.83;;;9.03;;
19867;SDS011;10096;51.112;6.776;2023-03-01T02:04:40;12.40;;;9.07;;
19867;SDS011;10096;51.112;6.776;2023-03-01T02:07:11;10.67;;;9.17;;
19867;SDS011;10096;51.112;6.776;2023-03-01T02:09:41;13.03;;;9.63;;
19867;SDS011;10096;51.112;6.776;2023-03-01T02:12:14;11.27;;;8.53;;
19867;SDS011;10096;51.112;6.776;2023-03-01T02:14:43;11.40;;;9.03;;
19867;SDS011;10096;51.112;6.776;2023-03-01T02:17:12;10.87;;;9.07;;
19867;SDS011;10096;51.112;6.776;2023-03-01T02:19:46;13.17;;;9.20;;
19867;SDS011;10096;51.112;6.776;2023-03-01T02:22:34;11.47;;;9.40;;
19867;SDS011;10096;51.112;6.776;2023-03-01T02:25:06;10.83;;;8.57;;
19867;SDS011;10096;51.112;6.776;2023-03-01T02:27:47;11.80;;;9.70;;
19867;SDS011;10096;51.112;6.776;2023-03-01T02:30:20;11.53;;;9.60;;
19867;SDS011;10096;51.112;6.776;2023-03-01T02:32:48;11.33;;;8.90;;
19867;SDS011;10096;51.112;6.776;2023-03-01T02:35:16;10.90;;;8.67;;
19867;SDS011;10096;51.112;6.776;2023-03-01T02:37:45;12.00;;;8.80;;
19867;SDS011;10096;51.112;6.776;2023-03-01T02:40:14;11.63;;;9.13;;
19867;SDS011;10096;51.112;6.776;2023-03-01T02:42:47;11.73;;;8.70;;
19867;SDS011;10096;51.112;6.776;2023-03-01T02:45:17;12.17;;;9.50;;
19867;SDS011;10096;51.112;6.776;2023-03-01T02:47:46;10.43;;;8.50;;
19867;SDS011;10096;51.112;6.776;2023-03-01T02:50:19;10.73;;;9.27;;
19867;SDS011;10096;51.112;6.776;2023-03-01T02:52:55;10.53;;;9.33;;
19867;SDS011;10096;51.112;6.776;2023-03-01T02:55:27;11.67;;;9.80;;
19867;SDS011;10096;51.112;6.776;2023-03-01T02:57:54;13.17;;;9.37;;
19867;SDS011;10096;51.112;6.776;2023-03-01T03:00:23;10.47;;;9.27;;
19867;SDS011;10096;51.112;6.776;2023-03-01T03:02:56;10.73;;;8.73;;
19867;SDS011;10096;51.112;6.776;2023-03-01T03:05:24;10.70;;;8.77;;
19867;SDS011;10096;51.112;6.776;2023-03-01T03:07:55;11.87;;;9.57;;
19867;SDS011;10096;51.112;6.776;2023-03-01T03:10:23;13.13;;;9.33;;
19867;SDS011;10096;51.112;6.776;2023-03-01T03:12:53;13.13;;;9.43;;
19867;SDS011;10096;51.112;6.776;2023-03-01T03:15:23;12.00;;;8.90;;
19867;SDS011;10096;51.112;6.776;2023-03-01T03:17:51;11.60;;;9.17;;
19867;SDS011;10096;51.112;6.776;2023-03-01T03:20:21;10.30;;;8.87;;
19867;SDS011;10096;51.112;6.776;2023-03-01T03:22:50;12.83;;;9.90;;
19867;SDS011;10096;51.112;6.776;2023-03-01T03:25:19;13.90;;;10.43;;
19867;SDS011;10096;51.112;6.776;2023-03-01T03:27:48;10.77;;;9.20;;
19867;SDS011;10096;51.112;6.776;2023-03-01T03:30:22;11.93;;;9.63;;
19867;SDS011;10096;51.112;6.776;2023-03-01T03:32:51;18.03;;;10.00;;
19867;SDS011;10096;51.112;6.776;2023-03-01T03:35:18;14.03;;;9.23;;
19867;SDS011;10096;51.112;6.776;2023-03-01T03:37:58;13.33;;;8.97;;
19867;SDS011;10096;51.112;6.776;2023-03-01T03:40:31;13.30;;;9.43;;
19867;SDS011;10096;51.112;6.776;2023-03-01T03:43:00;13.60;;;9.87;;
19867;SDS011;10096;51.112;6.776;2023-03-01T03:45:27;12.13;;;9.37;;
19867;SDS011;10096;51.112;6.776;2023-03-01T03:47:58;12.60;;;9.97;;
19867;SDS011;10096;51.112;6.776;2023-03-01T03:50:27;13.07;;;10.87;;
19867;SDS011;10096;51.112;6.776;2023-03-01T03:52:54;11.67;;;9.27;;
19867;SDS011;10096;51.112;6.776;2023-03-01T03:55:21;12.73;;;9.47;;
19867;SDS011;10096;51.112;6.776;2023-03-01T03:57:53;11.47;;;9.40;;
19867;SDS011;10096;51.112;6.776;2023-03-01T04:00:20;16.73;;;9.77;;
19867;SDS011;10096;51.112;6.776;2023-03-01T04:02:49;11.27;;;9.30;;
19867;SDS011;10096;51.112;6.776;2023-03-01T04:05:17;11.73;;;9.93;;
19867;SDS011;10096;51.112;6.776;2023-03-01T04:07:46;16.33;;;9.90;;
19867;SDS011;10096;51.112;6.776;2023-03-01T04:10:13;12.57;;;9.93;;
19867;SDS011;10096;51.112;6.776;2023-03-01T04:12:42;12.80;;;10.00;;
19867;SDS011;10096;51.112;6.776;2023-03-01T04:15:10;13.67;;;9.77;;
19867;SDS011;10096;51.112;6.776;2023-03-01T04:17:41;11.80;;;9.57;;
19867;SDS011;10096;51.112;6.776;2023-03-01T04:20:14;13.73;;;9.63;;
19867;SDS011;10096;51.112;6.776;2023-03-01T04:22:43;11.50;;;9.80;;
19867;SDS011;10096;51.112;6.776;2023-03-01T04:25:12;14.20;;;10.90;;
19867;SDS011;10096;51.112;6.776;2023-03-01T04:27:42;12.07;;;10.50;;
19867;SDS011;10096;51.112;6.776;2023-03-01T04:30:09;13.07;;;10.40;;
19867;SDS011;10096;51.112;6.776;2023-03-01T04:32:37;11.63;;;10.27;;
19867;SDS011;10096;51.112;6.776;2023-03-01T04:35:04;11.70;;;9.80;;
19867;SDS011;10096;51.112;6.776;2023-03-01T04:37:34;15.30;;;11.03;;
19867;SDS011;10096;51.112;6.776;2023-03-01T04:40:03;13.27;;;10.27;;
19867;SDS011;10096;51.112;6.776;2023-03-01T04:42:41;12.77;;;10.00;;
19867;SDS011;10096;51.112;6.776;2023-03-01T04:45:09;13.57;;;10.50;;
19867;SDS011;10096;51.112;6.776;2023-03-01T04:47:39;15.60;;;11.13;;
19867;SDS011;10096;51.112;6.776;2023-03-01T04:50:08;13.30;;;10.70;;
19867;SDS011;10096;51.112;6.776;2023-03-01T04:52:36;14.13;;;10.97;;
19867;SDS011;10096;51.112;6.776;2023-03-01T04:55:06;12.97;;;10.53;;
19867;SDS011;10096;51.112;6.776;2023-03-01T04:57:37;14.23;;;10.67;;
19867;SDS011;10096;51.112;6.776;2023-03-01T05:00:05;14.40;;;10.47;;
19867;SDS011;10096;51.112;6.776;2023-03-01T05:02:45;16.23;;;11.63;;
19867;SDS011;10096;51.112;6.776;2023-03-01T05:05:14;13.17;;;10.53;;
19867;SDS011;10096;51.112;6.776;2023-03-01T05:07:41;12.80;;;10.00;;
19867;SDS011;10096;51.112;6.776;2023-03-01T05:10:11;14.83;;;11.53;;
19867;SDS011;10096;51.112;6.776;2023-03-01T05:12:38;13.07;;;10.80;;
19867;SDS011;10096;51.112;6.776;2023-03-01T05:15:05;18.83;;;11.80;;
19867;SDS011;10096;51.112;6.776;2023-03-01T05:17:33;12.03;;;10.37;;
19867;SDS011;10096;51.112;6.776;2023-03-01T05:20:00;19.00;;;11.60;;
19867;SDS011;10096;51.112;6.776;2023-03-01T05:22:31;14.83;;;11.90;;
19867;SDS011;10096;51.112;6.776;2023-03-01T05:24:58;15.03;;;11.03;;
19867;SDS011;10096;51.112;6.776;2023-03-01T05:27:29;16.00;;;12.03;;
19867;SDS011;10096;51.112;6.776;2023-03-01T05:29:56;14.00;;;11.30;;
19867;SDS011;10096;51.112;6.776;2023-03-01T05:32:23;14.27;;;10.80;;
19867;SDS011;10096;51.112;6.776;2023-03-01T05:34:50;13.97;;;10.83;;
19867;SDS011;10096;51.112;6.776;2023-03-01T05:37:19;17.00;;;12.17;;
19867;SDS011;10096;51.112;6.776;2023-03-01T05:39:46;15.30;;;12.23;;
19867;SDS011;10096;51.112;6.776;2023-03-01T05:42:15;15.90;;;11.10;;
19867;SDS011;10096;51.112;6.776;2023-03-01T05:44:44;12.97;;;10.80;;
19867;SDS011;10096;51.112;6.776;2023-03-01T05:47:11;16.90;;;12.60;;
19867;SDS011;10096;51.112;6.776;2023-03-01T05:49:38;19.90;;;12.53;;
19867;SDS011;10096;51.112;6.776;2023-03-01T05:52:05;16.70;;;13.13;;
19867;SDS011;10096;51.112;6.776;2023-03-01T05:54:32;17.33;;;12.17;;
19867;SDS011;10096;51.112;6.776;2023-03-01T05:56:59;15.03;;;11.63;;
19867;SDS011;10096;51.112;6.776;2023-03-01T05:59:26;13.97;;;12.00;;
19867;SDS011;10096;51.112;6.776;2023-03-01T06:01:55;15.63;;;11.63;;
19867;SDS011;10096;51.112;6.776;2023-03-01T06:04:21;14.27;;;11.87;;
19867;SDS011;10096;51.112;6.776;2023-03-01T06:06:48;14.10;;;11.30;;
19867;SDS011;10096;51.112;6.776;2023-03-01T06:09:15;15.27;;;11.53;;
19867;SDS011;10096;51.112;6.776;2023-03-01T06:11:42;15.00;;;11.73;;
19867;SDS011;10096;51.112;6.776;2023-03-01T06:14:09;16.37;;;12.27;;
19867;SDS011;10096;51.112;6.776;2023-03-01T06:16:39;19.03;;;12.47;;
19867;SDS011;10096;51.112;6.776;2023-03-01T06:19:07;24.80;;;13.07;;
19867;SDS011;10096;51.112;6.776;2023-03-01T06:21:34;16.47;;;12.00;;
19867;SDS011;10096;51.112;6.776;2023-03-01T06:24:02;14.53;;;12.30;;
19867;SDS011;10096;51.112;6.776;2023-03-01T06:26:31;17.33;;;13.07;;
19867;SDS011;10096;51.112;6.776;2023-03-01T06:28:57;16.83;;;12.13;;
19867;SDS011;10096;51.112;6.776;2023-03-01T06:31:25;30.03;;;24.27;;
19867;SDS011;10096;51.112;6.776;2023-03-01T06:33:55;17.13;;;11.53;;
19867;SDS011;10096;51.112;6.776;2023-03-01T06:36:24;18.83;;;11.73;;
19867;SDS011;10096;51.112;6.776;2023-03-01T06:38:51;14.83;;;11.40;;
19867;SDS011;10096;51.112;6.776;2023-03-01T06:41:18;17.17;;;11.90;;
19867;SDS011;10096;51.112;6.776;2023-03-01T06:43:45;14.33;;;11.63;;
19867;SDS011;10096;51.112;6.776;2023-03-01T06:46:12;15.40;;;11.43;;
19867;SDS011;10096;51.112;6.776;2023-03-01T06:48:39;14.10;;;11.77;;
19867;SDS011;10096;51.112;6.776;2023-03-01T06:51:06;15.40;;;13.27;;
19867;SDS011;10096;51.112;6.776;2023-03-01T06:53:34;18.23;;;11.67;;
19867;SDS011;10096;51.112;6.776;2023-03-01T06:56:01;16.10;;;10.97;;
19867;SDS011;10096;51.112;6.776;2023-03-01T06:58:29;13.90;;;10.37;;
19867;SDS011;10096;51.112;6.776;2023-03-01T07:01:09;13.90;;;10.43;;
19867;SDS011;10096;51.112;6.776;2023-03-01T07:03:36;15.77;;;11.90;;
19867;SDS011;10096;51.112;6.776;2023-03-01T07:06:14;11.83;;;10.60;;
19867;SDS011;10096;51.112;6.776;2023-03-01T07:08:45;15.17;;;12.00;;
19867;SDS011;10096;51.112;6.776;2023-03-01T07:11:12;12.53;;;10.83;;
19867;SDS011;10096;51.112;6.776;2023-03-01T07:13:39;12.47;;;11.10;;
19867;SDS011;10096;51.112;6.776;2023-03-01T07:16:06;17.27;;;11.57;;
19867;SDS011;10096;51.112;6.776;2023-03-01T07:18:34;14.27;;;11.93;;
19867;SDS011;10096;51.112;6.776;2023-03-01T07:21:03;16.97;;;12.77;;
19867;SDS011;10096;51.112;6.776;2023-03-01T07:23:31;17.47;;;14.60;;
19867;SDS011;10096;51.112;6.776;2023-03-01T07:26:00;21.53;;;12.80;;
19867;SDS011;10096;51.112;6.776;2023-03-01T07:28:27;13.97;;;12.57;;
19867;SDS011;10096;51.112;6.776;2023-03-01T07:30:54;15.88;;;13.88;;
19867;SDS011;10096;51.112;6.776;2023-03-01T07:33:21;16.58;;;12.57;;
19867;SDS011;10096;51.112;6.776;2023-03-01T07:35:48;15.85;;;14.25;;
19867;SDS011;10096;51.112;6.776;2023-03-01T07:38:25;16.80;;;13.45;;
19867;SDS011;10096;51.112;6.776;2023-03-01T07:40:52;16.15;;;13.43;;
19867;SDS011;10096;51.112;6.776;2023-03-01T07:43:21;15.15;;;13.55;;
19867;SDS011;10096;51.112;6.776;2023-03-01T07:45:47;16.00;;;13.07;;
19867;SDS011;10096;51.112;6.776;2023-03-01T07:48:14;15.18;;;13.20;;
19867;SDS011;10096;51.112;6.776;2023-03-01T07:50:41;16.55;;;14.25;;
19867;SDS011;10096;51.112;6.776;2023-03-01T07:53:08;16.08;;;12.65;;
19867;SDS011;10096;51.112;6.776;2023-03-01T07:55:35;15.50;;;13.93;;
19867;SDS011;10096;51.112;6.776;2023-03-01T07:58:03;14.07;;;12.57;;
19867;SDS011;10096;51.112;6.776;2023-03-01T08:00:31;14.73;;;13.18;;
19867;SDS011;10096;51.112;6.776;2023-03-01T08:02:58;13.90;;;11.93;;
19867;SDS011;10096;51.112;6.776;2023-03-01T08:05:26;13.55;;;12.23;;
19867;SDS011;10096;51.112;6.776;2023-03-01T08:07:53;14.23;;;12.68;;
19867;SDS011;10096;51.112;6.776;2023-03-01T08:10:21;13.52;;;12.20;;
19867;SDS011;10096;51.112;6.776;2023-03-01T08:12:48;17.08;;;12.07;;
19867;SDS011;10096;51.112;6.776;2023-03-01T08:15:17;14.23;;;12.82;;
19867;SDS011;10096;51.112;6.776;2023-03-01T08:17:46;13.35;;;12.15;;
19867;SDS011;10096;51.112;6.776;2023-03-01T08:20:15;12.93;;;11.73;;
19867;SDS011;10096;51.112;6.776;2023-03-01T08:22:42;15.15;;;13.32;;
19867;SDS011;10096;51.112;6.776;2023-03-01T08:25:12;13.73;;;12.30;;
19867;SDS011;10096;51.112;6.776;2023-03-01T08:27:40;13.13;;;11.38;;
19867;SDS011;10096;51.112;6.776;2023-03-01T08:30:08;14.13;;;12.70;;
19867;SDS011;10096;51.112;6.776;2023-03-01T08:32:36;13.85;;;12.40;;
19867;SDS011;10096;51.112;6.776;2023-03-01T08:35:06;14.93;;;12.90;;
19867;SDS011;10096;51.112;6.776;2023-03-01T08:37:36;15.77;;;14.07;;
19867;SDS011;10096;51.112;6.776;2023-03-01T08:40:03;14.90;;;13.40;;
19867;SDS011;10096;51.112;6.776;2023-03-01T08:42:33;16.67;;;13.40;;
19867;SDS011;10096;51.112;6.776;2023-03-01T08:45:01;16.80;;;14.17;;
19867;SDS011;10096;51.112;6.776;2023-03-01T08:47:31;17.13;;;13.63;;
19867;SDS011;10096;51.112;6.776;2023-03-01T08:49:58;16.33;;;13.17;;
19867;SDS011;10096;51.112;6.776;2023-03-01T08:52:27;15.73;;;13.67;;
19867;SDS011;10096;51.112;6.776;2023-03-01T08:54:55;15.90;;;12.93;;
19867;SDS011;10096;51.112;6.776;2023-03-01T08:57:22;15.87;;;11.83;;
19867;SDS011;10096;51.112;6.776;2023-03-01T08:59:49;18.03;;;13.70;;
19867;SDS011;10096;51.112;6.776;2023-03-01T09:02:21;17.00;;;12.03;;
19867;SDS011;10096;51.112;6.776;2023-03-01T09:04:48;15.57;;;12.87;;
19867;SDS011;10096;51.112;6.776;2023-03-01T09:07:15;13.43;;;11.30;;
19867;SDS011;10096;51.112;6.776;2023-03-01T09:09:43;14.20;;;11.73;;
19867;SDS011;10096;51.112;6.776;2023-03-01T09:12:10;17.10;;;14.73;;
19867;SDS011;10096;51.112;6.776;2023-03-01T09:14:37;14.93;;;12.53;;
19867;SDS011;10096;51.112;6.776;2023-03-01T09:17:06;13.20;;;11.47;;
19867;SDS011;10096;51.112;6.776;2023-03-01T09:19:32;12.87;;;10.50;;
19867;SDS011;10096;51.112;6.776;2023-03-01T09:21:59;14.20;;;11.67;;
19867;SDS011;10096;51.112;6.776;2023-03-01T09:24:26;14.07;;;11.20;;
19867;SDS011;10096;51.112;6.776;2023-03-01T09:26:55;14.02;;;12.60;;
19867;SDS011;10096;51.112;6.776;2023-03-01T09:29:22;16.30;;;14.20;;
19867;SDS011;10096;51.112;6.776;2023-03-01T09:31:50;16.40;;;13.07;;
19867;SDS011;10096;51.112;6.776;2023-03-01T09:34:19;14.17;;;11.50;;
19867;SDS011;10096;51.112;6.776;2023-03-01T09:36:48;16.97;;;12.07;;
19867;SDS011;10096;51.112;6.776;2023-03-01T09:39:15;13.37;;;10.43;;
19867;SDS011;10096;51.112;6.776;2023-03-01T09:41:45;13.80;;;11.10;;
19867;SDS011;10096;51.112;6.776;2023-03-01T09:44:26;12.43;;;11.20;;
19867;SDS011;10096;51.112;6.776;2023-03-01T09:46:57;15.03;;;11.70;;
19867;SDS011;10096;51.112;6.776;2023-03-01T09:49:26;16.07;;;11.80;;
19867;SDS011;10096;51.112;6.776;2023-03-01T09:51:56;14.33;;;11.77;;
19867;SDS011;10096;51.112;6.776;2023-03-01T09:54:26;15.57;;;12.57;;
19867;SDS011;10096;51.112;6.776;2023-03-01T09:56:56;13.90;;;12.50;;
19867;SDS011;10096;51.112;6.776;2023-03-01T09:59:36;14.13;;;12.63;;
19867;SDS011;10096;51.112;6.776;2023-03-01T10:02:21;17.90;;;12.73;;
19867;SDS011;10096;51.112;6.776;2023-03-01T10:04:52;16.90;;;11.80;;
19867;SDS011;10096;51.112;6.776;2023-03-01T10:07:27;13.30;;;11.37;;
19867;SDS011;10096;51.112;6.776;2023-03-01T10:10:00;13.43;;;10.33;;
19867;SDS011;10096;51.112;6.776;2023-03-01T10:12:31;14.83;;;10.13;;
19867;SDS011;10096;51.112;6.776;2023-03-01T10:15:04;13.17;;;11.10;;
19867;SDS011;10096;51.112;6.776;2023-03-01T10:17:36;11.80;;;10.60;;
19867;SDS011;10096;51.112;6.776;2023-03-01T10:20:13;22.67;;;13.43;;
19867;SDS011;10096;51.112;6.776;2023-03-01T10:22:47;13.57;;;10.23;;
19867;SDS011;10096;51.112;6.776;2023-03-01T10:25:20;12.70;;;10.43;;
19867;SDS011;10096;51.112;6.776;2023-03-01T10:27:59;13.40;;;10.87;;
19867;SDS011;10096;51.112;6.776;2023-03-01T10:30:32;12.03;;;9.73;;
19867;SDS011;10096;51.112;6.776;2023-03-01T10:33:03;11.93;;;9.93;;
19867;SDS011;10096;51.112;6.776;2023-03-01T10:35:40;11.87;;;10.63;;
19867;SDS011;10096;51.112;6.776;2023-03-01T10:38:07;12.07;;;10.13;;
19867;SDS011;10096;51.112;6.776;2023-03-01T10:40:36;13.73;;;10.27;;
19867;SDS011;10096;51.112;6.776;2023-03-01T10:43:17;13.30;;;10.80;;
19867;SDS011;10096;51.112;6.776;2023-03-01T10:45:47;14.63;;;12.57;;
19867;SDS011;10096;51.112;6.776;2023-03-01T10:48:15;12.90;;;10.43;;
19867;SDS011;10096;51.112;6.776;2023-03-01T10:51:53;11.13;;;9.10;;
19867;SDS011;10096;51.112;6.776;2023-03-01T10:54:18;12.60;;;10.33;;
19867;SDS011;10096;51.112;6.776;2023-03-01T10:56:49;14.67;;;10.90;;
19867;SDS011;10096;51.112;6.776;2023-03-01T10:59:26;13.13;;;9.90;;
19867;SDS011;10096;51.112;6.776;2023-03-01T11:02:02;10.77;;;9.30;;
19867;SDS011;10096;51.112;6.776;2023-03-01T11:04:39;12.27;;;9.83;;
19867;SDS011;10096;51.112;6.776;2023-03-01T11:07:22;11.20;;;10.00;;
19867;SDS011;10096;51.112;6.776;2023-03-01T11:09:50;12.07;;;10.60;;
19867;SDS011;10096;51.112;6.776;2023-03-01T11:12:20;10.60;;;9.50;;
19867;SDS011;10096;51.112;6.776;2023-03-01T11:14:48;13.75;;;12.35;;
19867;SDS011;10096;51.112;6.776;2023-03-01T11:17:18;12.40;;;10.90;;
19867;SDS011;10096;51.112;6.776;2023-03-01T11:19:59;13.27;;;11.88;;
19867;SDS011;10096;51.112;6.776;2023-03-01T11:22:28;11.73;;;10.53;;
19867;SDS011;10096;51.112;6.776;2023-03-01T11:24:59;13.93;;;11.50;;
19867;SDS011;10096;51.112;6.776;2023-03-01T11:27:28;11.83;;;10.33;;
19867;SDS011;10096;51.112;6.776;2023-03-01T11:29:58;12.37;;;10.03;;
19867;SDS011;10096;51.112;6.776;2023-03-01T11:32:30;11.67;;;10.17;;
19867;SDS011;10096;51.112;6.776;2023-03-01T11:35:02;11.70;;;10.20;;
19867;SDS011;10096;51.112;6.776;2023-03-01T11:37:38;12.77;;;11.25;;
19867;SDS011;10096;51.112;6.776;2023-03-01T11:40:13;12.23;;;10.93;;
19867;SDS011;10096;51.112;6.776;2023-03-01T11:42:48;12.33;;;10.97;;
19867;SDS011;10096;51.112;6.776;2023-03-01T11:45:20;12.47;;;10.40;;
19867;SDS011;10096;51.112;6.776;2023-03-01T11:47:55;13.63;;;10.63;;
19867;SDS011;10096;51.112;6.776;2023-03-01T11:50:35;12.27;;;10.50;;
19867;SDS011;10096;51.112;6.776;2023-03-01T11:53:16;11.73;;;10.13;;
19867;SDS011;10096;51.112;6.776;2023-03-01T11:56:16;18.00;;;10.27;;
19867;SDS011;10096;51.112;6.776;2023-03-01T11:59:03;14.23;;;10.10;;
19867;SDS011;10096;51.112;6.776;2023-03-01T12:01:54;11.67;;;9.40;;
19867;SDS011;10096;51.112;6.776;2023-03-01T12:07:21;12.73;;;9.87;;
19867;SDS011;10096;51.112;6.776;2023-03-01T12:10:02;13.30;;;10.97;;
19867;SDS011;10096;51.112;6.776;2023-03-01T12:12:54;13.83;;;10.63;;
19867;SDS011;10096;51.112;6.776;2023-03-01T12:15:36;15.47;;;10.33;;
19867;SDS011;10096;51.112;6.776;2023-03-01T12:18:14;12.30;;;10.37;;
19867;SDS011;10096;51.112;6.776;2023-03-01T12:20:55;13.50;;;10.53;;
19867;SDS011;10096;51.112;6.776;2023-03-01T12:23:45;16.60;;;11.17;;
19867;SDS011;10096;51.112;6.776;2023-03-01T12:26:41;13.40;;;10.70;;
19867;SDS011;10096;51.112;6.776;2023-03-01T12:29:25;14.30;;;11.10;;
19867;SDS011;10096;51.112;6.776;2023-03-01T12:34:49;12.07;;;10.77;;
19867;SDS011;10096;51.112;6.776;2023-03-01T12:37:33;13.53;;;11.17;;
19867;SDS011;10096;51.112;6.776;2023-03-01T12:40:46;12.47;;;10.77;;
19867;SDS011;10096;51.112;6.776;2023-03-01T12:43:47;15.27;;;10.77;;
19867;SDS011;10096;51.112;6.776;2023-03-01T12:49:23;15.10;;;12.73;;
19867;SDS011;10096;51.112;6.776;2023-03-01T12:51:55;13.03;;;11.00;;
19867;SDS011;10096;51.112;6.776;2023-03-01T12:54:27;12.70;;;11.03;;
19867;SDS011;10096;51.112;6.776;2023-03-01T12:56:57;14.97;;;10.90;;
19867;SDS011;10096;51.112;6.776;2023-03-01T12:59:29;12.83;;;9.97;;
19867;SDS011;10096;51.112;6.776;2023-03-01T13:02:09;13.00;;;10.03;;
19867;SDS011;10096;51.112;6.776;2023-03-01T13:04:53;12.43;;;11.13;;
19867;SDS011;10096;51.112;6.776;2023-03-01T13:07:30;13.03;;;10.50;;
19867;SDS011;10096;51.112;6.776;2023-03-01T13:10:06;12.83;;;10.80;;
19867;SDS011;10096;51.112;6.776;2023-03-01T13:12:56;13.63;;;9.80;;
19867;SDS011;10096;51.112;6.776;2023-03-01T13:15:29;12.73;;;10.67;;
19867;SDS011;10096;51.112;6.776;2023-03-01T13:17:59;11.23;;;9.70;;
19867;SDS011;10096;51.112;6.776;2023-03-01T13:20:32;13.87;;;9.70;;
19867;SDS011;10096;51.112;6.776;2023-03-01T13:23:02;12.07;;;9.40;;
19867;SDS011;10096;51.112;6.776;2023-03-01T13:25:32;10.23;;;8.63;;
19867;SDS011;10096;51.112;6.776;2023-03-01T13:31:06;10.67;;;9.10;;
19867;SDS011;10096;51.112;6.776;2023-03-01T13:33:41;10.33;;;9.23;;
19867;SDS011;10096;51.112;6.776;2023-03-01T13:36:13;9.67;;;8.67;;
19867;SDS011;10096;51.112;6.776;2023-03-01T13:39:38;11.33;;;8.43;;
19867;SDS011;10096;51.112;6.776;2023-03-01T13:45:20;12.80;;;9.93;;
19867;SDS011;10096;51.112;6.776;2023-03-01T13:47:52;9.67;;;8.67;;
19867;SDS011;10096;51.112;6.776;2023-03-01T13:50:24;9.93;;;8.67;;
19867;SDS011;10096;51.112;6.776;2023-03-01T13:52:56;10.00;;;8.80;;
19867;SDS011;10096;51.112;6.776;2023-03-01T13:55:29;11.17;;;8.80;;
19867;SDS011;10096;51.112;6.776;2023-03-01T13:58:05;11.43;;;8.33;;
19867;SDS011;10096;51.112;6.776;2023-03-01T14:00:43;13.63;;;9.57;;
19867;SDS011;10096;51.112;6.776;2023-03-01T14:03:11;10.13;;;8.60;;
19867;SDS011;10096;51.112;6.776;2023-03-01T14:05:41;11.93;;;7.90;;
19867;SDS011;10096;51.112;6.776;2023-03-01T14:08:33;10.90;;;8.63;;
19867;SDS011;10096;51.112;6.776;2023-03-01T14:11:23;12.43;;;8.77;;
19867;SDS011;10096;51.112;6.776;2023-03-01T14:14:08;10.07;;;8.80;;
19867;SDS011;10096;51.112;6.776;2023-03-01T14:16:53;11.23;;;8.33;;
19867;SDS011;10096;51.112;6.776;2023-03-01T14:19:28;8.87;;;7.73;;
19867;SDS011;10096;51.112;6.776;2023-03-01T14:21:59;11.33;;;8.20;;
19867;SDS011;10096;51.112;6.776;2023-03-01T14:24:39;10.77;;;9.13;;
19867;SDS011;10096;51.112;6.776;2023-03-01T14:27:15;10.00;;;8.40;;
19867;SDS011;10096;51.112;6.776;2023-03-01T14:29:43;11.23;;;8.83;;
19867;SDS011;10096;51.112;6.776;2023-03-01T14:32:17;9.87;;;8.57;;
19867;SDS011;10096;51.112;6.776;2023-03-01T14:34:47;10.40;;;9.37;;
19867;SDS011;10096;51.112;6.776;2023-03-01T14:37:19;13.37;;;9.27;;
19867;SDS011;10096;51.112;6.776;2023-03-01T14:39:50;10.17;;;8.77;;
19867;SDS011;10096;51.112;6.776;2023-03-01T14:42:18;10.03;;;8.67;;
19867;SDS011;10096;51.112;6.776;2023-03-01T14:44:47;10.80;;;9.70;;
19867;SDS011;10096;51.112;6.776;2023-03-01T14:47:23;9.50;;;8.50;;
19867;SDS011;10096;51.112;6.776;2023-03-01T14:49:55;10.17;;;8.20;;
19867;SDS011;10096;51.112;6.776;2023-03-01T14:52:25;10.70;;;8.63;;
19867;SDS011;10096;51.112;6.776;2023-03-01T14:55:01;11.93;;;8.53;;
19867;SDS011;10096;51.112;6.776;2023-03-01T14:57:31;11.20;;;9.07;;
19867;SDS011;10096;51.112;6.776;2023-03-01T14:59:58;10.47;;;8.67;;
19867;SDS011;10096;51.112;6.776;2023-03-01T15:02:29;10.90;;;8.50;;
19867;SDS011;10096;51.112;6.776;2023-03-01T15:04:58;10.90;;;9.33;;
19867;SDS011;10096;51.112;6.776;2023-03-01T15:07:27;10.80;;;8.43;;
19867;SDS011;10096;51.112;6.776;2023-03-01T15:09:57;11.10;;;9.17;;
19867;SDS011;10096;51.112;6.776;2023-03-01T15:12:32;11.90;;;8.43;;